Terminal Aerodrome Forecast
Issued by NWS

Home | Current Version | Previous Version | Text Only | Print | Product List | Glossary On
Versions: 1 2 3 4 5 6 7 8 9 10 11 12
000
FTPA31 PHFO 221135
TAFHJR
TAF
PHJR 221135Z 2212/2312 06005KT P6SM FEW025 SCT060
     FM222000 08009G16KT P6SM FEW025 BKN050
     FM230400 06005KT P6SM FEW025 SCT060=

USA.gov is the U.S. government's official web portal to all federal, state and local government web resources and services.